Proctor, Texas
Current Conditions -  °F | °C
As of 3:35 AM on Thursday 27 Nov 2014 (Local Time) from KMKN Reporting Station
Clear Clear  
Wind Chill: 42°   Ceiling: Unl
Heat Index: 42°   Visibility: 10mi
Dew Point: 35°   Wind: 3mph
Humidity: 78%   Direction: 320°NW
Pressure: 30.44"   Gusts: NA
Location:  31.99°N, 98.43°W
Report Text: KMKN 270935Z AUTO 32003KT 10SM CLR 05/02 A3044 RMK AO2 T00530018
Loading
Personal Weather Stations






























Interactive Weather Map New forecast layout! Learn more

10-Day Weather Forecast

Advertisements
Track Severe Weather on mobile